sensor_id;sensor_type;location;lat;lon;timestamp;temperature;humidity
33837;DHT22;20140;49.356;8.812;2023-01-23T00:00:33;1.70;99.90
33837;DHT22;20140;49.356;8.812;2023-01-23T00:02:59;1.70;99.90
33837;DHT22;20140;49.356;8.812;2023-01-23T00:05:24;1.70;99.90
33837;DHT22;20140;49.356;8.812;2023-01-23T00:07:50;1.70;99.90
33837;DHT22;20140;49.356;8.812;2023-01-23T00:10:16;1.70;99.90
33837;DHT22;20140;49.356;8.812;2023-01-23T00:12:43;1.70;99.90
33837;DHT22;20140;49.356;8.812;2023-01-23T00:15:10;1.70;99.90
33837;DHT22;20140;49.356;8.812;2023-01-23T00:17:36;1.70;99.90
33837;DHT22;20140;49.356;8.812;2023-01-23T00:20:02;1.70;99.90
33837;DHT22;20140;49.356;8.812;2023-01-23T00:22:29;1.70;99.90
33837;DHT22;20140;49.356;8.812;2023-01-23T00:24:54;1.70;99.90
33837;DHT22;20140;49.356;8.812;2023-01-23T00:27:20;1.70;99.90
33837;DHT22;20140;49.356;8.812;2023-01-23T00:29:45;1.70;99.90
33837;DHT22;20140;49.356;8.812;2023-01-23T00:32:12;1.70;99.90
33837;DHT22;20140;49.356;8.812;2023-01-23T00:34:37;1.70;99.90
33837;DHT22;20140;49.356;8.812;2023-01-23T00:37:03;1.80;99.90
33837;DHT22;20140;49.356;8.812;2023-01-23T00:39:28;1.70;99.90
33837;DHT22;20140;49.356;8.812;2023-01-23T00:41:54;1.70;99.90
33837;DHT22;20140;49.356;8.812;2023-01-23T00:44:20;1.70;99.90
33837;DHT22;20140;49.356;8.812;2023-01-23T00:46:46;1.60;99.90
33837;DHT22;20140;49.356;8.812;2023-01-23T00:49:12;1.70;99.90
33837;DHT22;20140;49.356;8.812;2023-01-23T00:51:38;1.60;99.90
33837;DHT22;20140;49.356;8.812;2023-01-23T00:54:04;1.60;99.90
33837;DHT22;20140;49.356;8.812;2023-01-23T00:56:29;1.50;99.90
33837;DHT22;20140;49.356;8.812;2023-01-23T00:58:55;1.60;99.90
33837;DHT22;20140;49.356;8.812;2023-01-23T01:01:20;1.50;99.90
33837;DHT22;20140;49.356;8.812;2023-01-23T01:03:47;1.50;99.90
33837;DHT22;20140;49.356;8.812;2023-01-23T01:06:13;1.40;99.90
33837;DHT22;20140;49.356;8.812;2023-01-23T01:08:38;1.50;99.90
33837;DHT22;20140;49.356;8.812;2023-01-23T01:11:04;1.40;99.90
33837;DHT22;20140;49.356;8.812;2023-01-23T01:13:30;1.30;99.90
33837;DHT22;20140;49.356;8.812;2023-01-23T01:15:55;1.20;99.90
33837;DHT22;20140;49.356;8.812;2023-01-23T01:18:22;1.20;99.90
33837;DHT22;20140;49.356;8.812;2023-01-23T01:20:48;1.10;99.90
33837;DHT22;20140;49.356;8.812;2023-01-23T01:23:14;1.10;99.90
33837;DHT22;20140;49.356;8.812;2023-01-23T01:25:40;1.00;99.90
33837;DHT22;20140;49.356;8.812;2023-01-23T01:28:05;1.00;99.90
33837;DHT22;20140;49.356;8.812;2023-01-23T01:30:31;1.00;99.90
33837;DHT22;20140;49.356;8.812;2023-01-23T01:32:57;1.00;99.90
33837;DHT22;20140;49.356;8.812;2023-01-23T01:35:23;1.00;99.90
33837;DHT22;20140;49.356;8.812;2023-01-23T01:37:49;1.00;99.90
33837;DHT22;20140;49.356;8.812;2023-01-23T01:40:19;1.00;99.90
33837;DHT22;20140;49.356;8.812;2023-01-23T01:42:55;0.90;99.90
33837;DHT22;20140;49.356;8.812;2023-01-23T01:46:01;1.00;99.90
33837;DHT22;20140;49.356;8.812;2023-01-23T01:51:47;1.10;99.90
33837;DHT22;20140;49.356;8.812;2023-01-23T01:54:33;1.10;99.90
33837;DHT22;20140;49.356;8.812;2023-01-23T01:57:09;1.20;99.90
33837;DHT22;20140;49.356;8.812;2023-01-23T01:59:42;1.20;99.90
33837;DHT22;20140;49.356;8.812;2023-01-23T02:02:12;1.10;99.90
33837;DHT22;20140;49.356;8.812;2023-01-23T02:04:42;1.20;99.90
33837;DHT22;20140;49.356;8.812;2023-01-23T02:07:20;1.20;99.90
33837;DHT22;20140;49.356;8.812;2023-01-23T02:09:48;1.20;99.90
33837;DHT22;20140;49.356;8.812;2023-01-23T02:12:13;1.20;99.90
33837;DHT22;20140;49.356;8.812;2023-01-23T02:14:39;1.30;99.90
33837;DHT22;20140;49.356;8.812;2023-01-23T02:17:05;1.30;99.90
33837;DHT22;20140;49.356;8.812;2023-01-23T02:19:36;1.30;99.90
33837;DHT22;20140;49.356;8.812;2023-01-23T02:22:44;1.30;99.90
33837;DHT22;20140;49.356;8.812;2023-01-23T02:25:38;1.30;99.90
33837;DHT22;20140;49.356;8.812;2023-01-23T02:28:05;1.30;99.90
33837;DHT22;20140;49.356;8.812;2023-01-23T02:30:31;1.30;99.90
33837;DHT22;20140;49.356;8.812;2023-01-23T02:35:45;1.40;99.90
33837;DHT22;20140;49.356;8.812;2023-01-23T02:38:11;1.40;99.90
33837;DHT22;20140;49.356;8.812;2023-01-23T02:40:40;1.40;99.90
33837;DHT22;20140;49.356;8.812;2023-01-23T02:43:08;1.50;99.90
33837;DHT22;20140;49.356;8.812;2023-01-23T02:45:35;1.50;99.90
33837;DHT22;20140;49.356;8.812;2023-01-23T02:48:01;1.50;99.90
33837;DHT22;20140;49.356;8.812;2023-01-23T02:50:28;1.50;99.90
33837;DHT22;20140;49.356;8.812;2023-01-23T02:52:53;1.50;99.90
33837;DHT22;20140;49.356;8.812;2023-01-23T02:55:20;1.60;99.90
33837;DHT22;20140;49.356;8.812;2023-01-23T02:57:46;1.50;99.90
33837;DHT22;20140;49.356;8.812;2023-01-23T03:00:13;1.60;99.90
33837;DHT22;20140;49.356;8.812;2023-01-23T03:02:46;1.60;99.90
33837;DHT22;20140;49.356;8.812;2023-01-23T03:05:11;1.60;99.90
33837;DHT22;20140;49.356;8.812;2023-01-23T03:07:37;1.60;99.90
33837;DHT22;20140;49.356;8.812;2023-01-23T03:10:04;1.60;99.90
33837;DHT22;20140;49.356;8.812;2023-01-23T03:12:30;1.60;99.90
33837;DHT22;20140;49.356;8.812;2023-01-23T03:14:55;1.60;99.90
33837;DHT22;20140;49.356;8.812;2023-01-23T03:17:23;1.60;99.90
33837;DHT22;20140;49.356;8.812;2023-01-23T03:19:49;1.60;99.90
33837;DHT22;20140;49.356;8.812;2023-01-23T03:22:14;1.60;99.90
33837;DHT22;20140;49.356;8.812;2023-01-23T03:24:40;1.50;99.90
33837;DHT22;20140;49.356;8.812;2023-01-23T03:27:06;1.50;99.90
33837;DHT22;20140;49.356;8.812;2023-01-23T03:29:31;1.50;99.90
33837;DHT22;20140;49.356;8.812;2023-01-23T03:32:15;1.50;99.90
33837;DHT22;20140;49.356;8.812;2023-01-23T03:34:42;1.60;99.90
33837;DHT22;20140;49.356;8.812;2023-01-23T03:37:10;1.50;99.90
33837;DHT22;20140;49.356;8.812;2023-01-23T03:39:36;1.60;99.90
33837;DHT22;20140;49.356;8.812;2023-01-23T03:42:20;1.60;99.90
33837;DHT22;20140;49.356;8.812;2023-01-23T03:44:47;1.60;99.90
33837;DHT22;20140;49.356;8.812;2023-01-23T03:47:12;1.60;99.90
33837;DHT22;20140;49.356;8.812;2023-01-23T03:49:38;1.50;99.90
33837;DHT22;20140;49.356;8.812;2023-01-23T03:52:03;1.50;99.90
33837;DHT22;20140;49.356;8.812;2023-01-23T03:54:29;1.50;99.90
33837;DHT22;20140;49.356;8.812;2023-01-23T03:56:55;1.60;99.90
33837;DHT22;20140;49.356;8.812;2023-01-23T03:59:20;1.60;99.90
33837;DHT22;20140;49.356;8.812;2023-01-23T04:01:46;1.70;99.90
33837;DHT22;20140;49.356;8.812;2023-01-23T04:04:12;1.60;99.90
33837;DHT22;20140;49.356;8.812;2023-01-23T04:06:38;1.70;99.90
33837;DHT22;20140;49.356;8.812;2023-01-23T04:09:04;1.70;99.90
33837;DHT22;20140;49.356;8.812;2023-01-23T04:11:29;1.70;99.90
33837;DHT22;20140;49.356;8.812;2023-01-23T04:13:55;1.80;99.90
33837;DHT22;20140;49.356;8.812;2023-01-23T04:16:21;1.80;99.90
33837;DHT22;20140;49.356;8.812;2023-01-23T04:18:50;1.80;99.90
33837;DHT22;20140;49.356;8.812;2023-01-23T04:21:16;1.80;99.90
33837;DHT22;20140;49.356;8.812;2023-01-23T04:23:41;1.80;99.90
33837;DHT22;20140;49.356;8.812;2023-01-23T04:26:07;1.80;99.90
33837;DHT22;20140;49.356;8.812;2023-01-23T04:28:32;1.70;99.90
33837;DHT22;20140;49.356;8.812;2023-01-23T04:30:58;1.70;99.90
33837;DHT22;20140;49.356;8.812;2023-01-23T04:33:24;1.70;99.90
33837;DHT22;20140;49.356;8.812;2023-01-23T04:35:58;1.80;99.90
33837;DHT22;20140;49.356;8.812;2023-01-23T04:38:25;1.80;99.90
33837;DHT22;20140;49.356;8.812;2023-01-23T04:40:51;1.80;99.90
33837;DHT22;20140;49.356;8.812;2023-01-23T04:43:18;1.70;99.90
33837;DHT22;20140;49.356;8.812;2023-01-23T04:45:44;1.80;99.90
33837;DHT22;20140;49.356;8.812;2023-01-23T04:48:10;1.80;99.90
33837;DHT22;20140;49.356;8.812;2023-01-23T04:50:36;1.80;99.90
33837;DHT22;20140;49.356;8.812;2023-01-23T04:53:02;1.80;99.90
33837;DHT22;20140;49.356;8.812;2023-01-23T04:55:28;1.80;99.90
33837;DHT22;20140;49.356;8.812;2023-01-23T04:57:54;1.80;99.90
33837;DHT22;20140;49.356;8.812;2023-01-23T05:00:20;1.90;99.90
33837;DHT22;20140;49.356;8.812;2023-01-23T05:02:46;1.80;99.90
33837;DHT22;20140;49.356;8.812;2023-01-23T05:05:12;1.90;99.90
33837;DHT22;20140;49.356;8.812;2023-01-23T05:07:38;2.00;99.90
33837;DHT22;20140;49.356;8.812;2023-01-23T05:10:04;1.90;99.90
33837;DHT22;20140;49.356;8.812;2023-01-23T05:12:31;1.80;99.90
33837;DHT22;20140;49.356;8.812;2023-01-23T05:14:56;1.90;99.90
33837;DHT22;20140;49.356;8.812;2023-01-23T05:17:22;2.00;99.90
33837;DHT22;20140;49.356;8.812;2023-01-23T05:19:47;2.00;99.90
33837;DHT22;20140;49.356;8.812;2023-01-23T05:22:13;2.00;99.90
33837;DHT22;20140;49.356;8.812;2023-01-23T05:24:39;2.00;99.90
33837;DHT22;20140;49.356;8.812;2023-01-23T05:27:04;2.00;99.90
33837;DHT22;20140;49.356;8.812;2023-01-23T05:29:30;2.00;99.90
33837;DHT22;20140;49.356;8.812;2023-01-23T05:31:55;1.90;99.90
33837;DHT22;20140;49.356;8.812;2023-01-23T05:34:21;1.90;99.90
33837;DHT22;20140;49.356;8.812;2023-01-23T05:36:47;2.00;99.90
33837;DHT22;20140;49.356;8.812;2023-01-23T05:39:12;1.90;99.90
33837;DHT22;20140;49.356;8.812;2023-01-23T05:41:38;1.90;99.90
33837;DHT22;20140;49.356;8.812;2023-01-23T05:44:03;1.90;99.90
33837;DHT22;20140;49.356;8.812;2023-01-23T05:46:29;1.90;99.90
33837;DHT22;20140;49.356;8.812;2023-01-23T05:48:54;1.90;99.90
33837;DHT22;20140;49.356;8.812;2023-01-23T05:51:20;1.90;99.90
33837;DHT22;20140;49.356;8.812;2023-01-23T05:53:47;2.00;99.90
33837;DHT22;20140;49.356;8.812;2023-01-23T05:56:13;1.90;99.90
33837;DHT22;20140;49.356;8.812;2023-01-23T05:58:39;1.90;99.90
33837;DHT22;20140;49.356;8.812;2023-01-23T06:01:04;1.90;99.90
33837;DHT22;20140;49.356;8.812;2023-01-23T06:03:30;1.80;99.90
33837;DHT22;20140;49.356;8.812;2023-01-23T06:05:55;1.80;99.90
33837;DHT22;20140;49.356;8.812;2023-01-23T06:08:21;1.80;99.90
33837;DHT22;20140;49.356;8.812;2023-01-23T06:10:46;1.80;99.90
33837;DHT22;20140;49.356;8.812;2023-01-23T06:13:12;1.80;99.90
33837;DHT22;20140;49.356;8.812;2023-01-23T06:15:39;1.80;99.90
33837;DHT22;20140;49.356;8.812;2023-01-23T06:18:05;1.80;99.90
33837;DHT22;20140;49.356;8.812;2023-01-23T06:20:30;1.80;99.90
33837;DHT22;20140;49.356;8.812;2023-01-23T06:22:56;1.70;99.90
33837;DHT22;20140;49.356;8.812;2023-01-23T06:25:21;1.70;99.90
33837;DHT22;20140;49.356;8.812;2023-01-23T06:27:47;1.70;99.90
33837;DHT22;20140;49.356;8.812;2023-01-23T06:30:13;1.60;99.90
33837;DHT22;20140;49.356;8.812;2023-01-23T06:32:39;1.60;99.90
33837;DHT22;20140;49.356;8.812;2023-01-23T06:35:05;1.50;99.90
33837;DHT22;20140;49.356;8.812;2023-01-23T06:37:31;1.40;99.90
33837;DHT22;20140;49.356;8.812;2023-01-23T06:39:56;1.40;99.90
33837;DHT22;20140;49.356;8.812;2023-01-23T06:42:22;1.40;99.90
33837;DHT22;20140;49.356;8.812;2023-01-23T06:44:48;1.40;99.90
33837;DHT22;20140;49.356;8.812;2023-01-23T06:47:14;1.40;99.90
33837;DHT22;20140;49.356;8.812;2023-01-23T06:49:40;1.30;99.90
33837;DHT22;20140;49.356;8.812;2023-01-23T06:52:06;1.30;99.90
33837;DHT22;20140;49.356;8.812;2023-01-23T06:54:31;1.30;99.90
33837;DHT22;20140;49.356;8.812;2023-01-23T06:56:57;1.20;99.90
33837;DHT22;20140;49.356;8.812;2023-01-23T06:59:22;1.20;99.90
33837;DHT22;20140;49.356;8.812;2023-01-23T07:01:48;1.20;99.90
33837;DHT22;20140;49.356;8.812;2023-01-23T07:04:13;1.30;99.90
33837;DHT22;20140;49.356;8.812;2023-01-23T07:06:39;1.30;99.90
33837;DHT22;20140;49.356;8.812;2023-01-23T07:09:04;1.20;99.90
33837;DHT22;20140;49.356;8.812;2023-01-23T07:11:30;1.20;99.90
33837;DHT22;20140;49.356;8.812;2023-01-23T07:13:55;1.10;99.90
33837;DHT22;20140;49.356;8.812;2023-01-23T07:16:21;1.10;99.90
33837;DHT22;20140;49.356;8.812;2023-01-23T07:18:47;1.20;99.90
33837;DHT22;20140;49.356;8.812;2023-01-23T07:21:12;1.20;99.90
33837;DHT22;20140;49.356;8.812;2023-01-23T07:23:38;1.30;99.90
33837;DHT22;20140;49.356;8.812;2023-01-23T07:26:05;1.30;99.90
33837;DHT22;20140;49.356;8.812;2023-01-23T07:28:35;1.30;99.90
33837;DHT22;20140;49.356;8.812;2023-01-23T07:31:01;1.40;99.90
33837;DHT22;20140;49.356;8.812;2023-01-23T07:33:26;1.40;99.90
33837;DHT22;20140;49.356;8.812;2023-01-23T07:35:52;1.40;99.90
33837;DHT22;20140;49.356;8.812;2023-01-23T07:38:18;1.50;99.90
33837;DHT22;20140;49.356;8.812;2023-01-23T07:40:43;1.40;99.90
33837;DHT22;20140;49.356;8.812;2023-01-23T07:43:09;1.40;99.90
33837;DHT22;20140;49.356;8.812;2023-01-23T07:45:36;1.40;99.90
33837;DHT22;20140;49.356;8.812;2023-01-23T07:48:03;1.50;99.90
33837;DHT22;20140;49.356;8.812;2023-01-23T07:50:28;1.70;99.90
33837;DHT22;20140;49.356;8.812;2023-01-23T07:52:54;1.70;99.90
33837;DHT22;20140;49.356;8.812;2023-01-23T07:55:19;1.70;99.90
33837;DHT22;20140;49.356;8.812;2023-01-23T07:57:46;1.60;99.90
33837;DHT22;20140;49.356;8.812;2023-01-23T08:00:11;1.70;99.90
33837;DHT22;20140;49.356;8.812;2023-01-23T08:02:37;1.80;99.90
33837;DHT22;20140;49.356;8.812;2023-01-23T08:05:03;1.90;99.90
33837;DHT22;20140;49.356;8.812;2023-01-23T08:07:28;1.80;99.90
33837;DHT22;20140;49.356;8.812;2023-01-23T08:09:54;1.90;99.90
33837;DHT22;20140;49.356;8.812;2023-01-23T08:12:20;1.90;99.90
33837;DHT22;20140;49.356;8.812;2023-01-23T08:14:47;2.00;99.90
33837;DHT22;20140;49.356;8.812;2023-01-23T08:17:13;2.00;99.90
33837;DHT22;20140;49.356;8.812;2023-01-23T08:19:38;2.10;99.90
33837;DHT22;20140;49.356;8.812;2023-01-23T08:22:04;2.00;99.90
33837;DHT22;20140;49.356;8.812;2023-01-23T08:24:29;2.10;99.90
33837;DHT22;20140;49.356;8.812;2023-01-23T08:26:55;2.10;99.90
33837;DHT22;20140;49.356;8.812;2023-01-23T08:29:20;2.20;99.90
33837;DHT22;20140;49.356;8.812;2023-01-23T08:31:46;2.20;99.90
33837;DHT22;20140;49.356;8.812;2023-01-23T08:34:12;2.20;99.90
33837;DHT22;20140;49.356;8.812;2023-01-23T08:36:37;2.20;99.90
33837;DHT22;20140;49.356;8.812;2023-01-23T08:39:03;2.30;99.90
33837;DHT22;20140;49.356;8.812;2023-01-23T08:41:29;2.30;99.90
33837;DHT22;20140;49.356;8.812;2023-01-23T08:43:54;2.40;99.90
33837;DHT22;20140;49.356;8.812;2023-01-23T08:46:21;2.30;99.90
33837;DHT22;20140;49.356;8.812;2023-01-23T08:48:47;2.30;99.90
33837;DHT22;20140;49.356;8.812;2023-01-23T08:51:13;2.40;99.90
33837;DHT22;20140;49.356;8.812;2023-01-23T08:53:39;2.40;99.90
33837;DHT22;20140;49.356;8.812;2023-01-23T08:56:07;2.40;99.90
33837;DHT22;20140;49.356;8.812;2023-01-23T08:58:33;2.40;99.90
33837;DHT22;20140;49.356;8.812;2023-01-23T09:00:59;2.40;99.90
33837;DHT22;20140;49.356;8.812;2023-01-23T09:03:24;2.40;99.90
33837;DHT22;20140;49.356;8.812;2023-01-23T09:05:50;2.40;99.90
33837;DHT22;20140;49.356;8.812;2023-01-23T09:08:16;2.40;99.90
33837;DHT22;20140;49.356;8.812;2023-01-23T09:10:41;2.40;99.90
33837;DHT22;20140;49.356;8.812;2023-01-23T09:13:07;2.40;99.90
33837;DHT22;20140;49.356;8.812;2023-01-23T09:15:32;2.50;99.90
33837;DHT22;20140;49.356;8.812;2023-01-23T09:17:58;2.40;99.90
33837;DHT22;20140;49.356;8.812;2023-01-23T09:20:24;2.40;99.90
33837;DHT22;20140;49.356;8.812;2023-01-23T09:22:53;2.40;99.90
33837;DHT22;20140;49.356;8.812;2023-01-23T09:25:19;2.40;99.90
33837;DHT22;20140;49.356;8.812;2023-01-23T09:27:44;2.40;99.90
33837;DHT22;20140;49.356;8.812;2023-01-23T09:30:11;2.50;99.90
33837;DHT22;20140;49.356;8.812;2023-01-23T09:32:36;2.50;99.90
33837;DHT22;20140;49.356;8.812;2023-01-23T09:35:02;2.50;99.90
33837;DHT22;20140;49.356;8.812;2023-01-23T09:37:29;2.50;99.90
33837;DHT22;20140;49.356;8.812;2023-01-23T09:40:16;2.50;99.90
33837;DHT22;20140;49.356;8.812;2023-01-23T09:42:42;2.50;99.90
33837;DHT22;20140;49.356;8.812;2023-01-23T09:45:09;2.50;99.90
33837;DHT22;20140;49.356;8.812;2023-01-23T09:50:33;2.60;99.90
33837;DHT22;20140;49.356;8.812;2023-01-23T09:53:12;2.60;99.90
33837;DHT22;20140;49.356;8.812;2023-01-23T09:55:42;2.60;99.90
33837;DHT22;20140;49.356;8.812;2023-01-23T09:58:51;2.60;99.90
33837;DHT22;20140;49.356;8.812;2023-01-23T10:01:11;2.70;99.90
33837;DHT22;20140;49.356;8.812;2023-01-23T10:03:37;2.60;99.90
33837;DHT22;20140;49.356;8.812;2023-01-23T10:09:16;2.50;99.90
33837;DHT22;20140;49.356;8.812;2023-01-23T10:11:58;2.60;99.90
33837;DHT22;20140;49.356;8.812;2023-01-23T10:14:43;2.60;99.90
33837;DHT22;20140;49.356;8.812;2023-01-23T10:20:18;2.60;99.90
33837;DHT22;20140;49.356;8.812;2023-01-23T10:22:54;2.70;99.90
33837;DHT22;20140;49.356;8.812;2023-01-23T10:25:24;2.70;99.90
33837;DHT22;20140;49.356;8.812;2023-01-23T10:27:55;2.80;99.90
33837;DHT22;20140;49.356;8.812;2023-01-23T10:30:31;2.80;99.90
33837;DHT22;20140;49.356;8.812;2023-01-23T10:33:01;2.80;99.90
33837;DHT22;20140;49.356;8.812;2023-01-23T10:35:46;2.90;99.90
33837;DHT22;20140;49.356;8.812;2023-01-23T10:40:58;2.90;99.90
33837;DHT22;20140;49.356;8.812;2023-01-23T10:43:45;2.90;99.90
33837;DHT22;20140;49.356;8.812;2023-01-23T10:46:14;2.80;99.90
33837;DHT22;20140;49.356;8.812;2023-01-23T10:48:51;2.80;99.90
33837;DHT22;20140;49.356;8.812;2023-01-23T10:56:36;2.90;99.90
33837;DHT22;20140;49.356;8.812;2023-01-23T10:59:04;3.00;99.90
33837;DHT22;20140;49.356;8.812;2023-01-23T11:01:32;3.00;99.90
33837;DHT22;20140;49.356;8.812;2023-01-23T11:04:18;3.00;99.90
33837;DHT22;20140;49.356;8.812;2023-01-23T11:07:10;3.00;99.90
33837;DHT22;20140;49.356;8.812;2023-01-23T11:12:15;3.10;99.90
33837;DHT22;20140;49.356;8.812;2023-01-23T11:14:41;3.10;99.90
33837;DHT22;20140;49.356;8.812;2023-01-23T11:17:23;3.20;99.90
33837;DHT22;20140;49.356;8.812;2023-01-23T11:19:51;3.10;99.90
33837;DHT22;20140;49.356;8.812;2023-01-23T11:22:32;3.10;99.90
33837;DHT22;20140;49.356;8.812;2023-01-23T11:24:58;3.10;99.90
33837;DHT22;20140;49.356;8.812;2023-01-23T11:27:26;3.20;99.90
33837;DHT22;20140;49.356;8.812;2023-01-23T11:30:21;3.10;99.90
33837;DHT22;20140;49.356;8.812;2023-01-23T11:32:58;3.20;99.90
33837;DHT22;20140;49.356;8.812;2023-01-23T11:35:43;3.20;99.90
33837;DHT22;20140;49.356;8.812;2023-01-23T11:38:14;3.30;99.90
33837;DHT22;20140;49.356;8.812;2023-01-23T11:40:41;3.20;99.90
33837;DHT22;20140;49.356;8.812;2023-01-23T11:43:16;3.30;99.90
33837;DHT22;20140;49.356;8.812;2023-01-23T11:46:15;3.30;99.90
33837;DHT22;20140;49.356;8.812;2023-01-23T11:51:51;3.20;99.90
33837;DHT22;20140;49.356;8.812;2023-01-23T11:54:58;3.30;99.90
33837;DHT22;20140;49.356;8.812;2023-01-23T11:57:36;3.40;99.90
33837;DHT22;20140;49.356;8.812;2023-01-23T12:00:28;3.50;99.90
33837;DHT22;20140;49.356;8.812;2023-01-23T12:03:13;3.50;99.90
33837;DHT22;20140;49.356;8.812;2023-01-23T12:05:44;3.50;99.90
33837;DHT22;20140;49.356;8.812;2023-01-23T12:28:46;3.70;99.90
33837;DHT22;20140;49.356;8.812;2023-01-23T12:30:51;3.70;99.90
33837;DHT22;20140;49.356;8.812;2023-01-23T12:41:48;3.90;99.90
33837;DHT22;20140;49.356;8.812;2023-01-23T12:44:28;3.90;99.90
33837;DHT22;20140;49.356;8.812;2023-01-23T12:47:24;3.90;99.90
33837;DHT22;20140;49.356;8.812;2023-01-23T12:50:14;3.80;99.90
33837;DHT22;20140;49.356;8.812;2023-01-23T12:53:03;3.70;99.90
33837;DHT22;20140;49.356;8.812;2023-01-23T12:55:37;3.70;99.90
33837;DHT22;20140;49.356;8.812;2023-01-23T12:58:03;3.70;99.90
33837;DHT22;20140;49.356;8.812;2023-01-23T13:06:31;3.70;99.90
33837;DHT22;20140;49.356;8.812;2023-01-23T13:09:21;3.80;99.90
33837;DHT22;20140;49.356;8.812;2023-01-23T13:11:57;3.80;99.90
33837;DHT22;20140;49.356;8.812;2023-01-23T13:16:58;3.60;99.90
33837;DHT22;20140;49.356;8.812;2023-01-23T13:19:29;3.70;99.90
33837;DHT22;20140;49.356;8.812;2023-01-23T13:25:02;3.60;99.90
33837;DHT22;20140;49.356;8.812;2023-01-23T13:32:51;3.80;99.90
33837;DHT22;20140;49.356;8.812;2023-01-23T13:44:09;3.70;99.90
33837;DHT22;20140;49.356;8.812;2023-01-23T13:52:24;3.80;99.90
33837;DHT22;20140;49.356;8.812;2023-01-23T13:55:21;3.80;99.90
33837;DHT22;20140;49.356;8.812;2023-01-23T13:58:13;3.80;99.90
33837;DHT22;20140;49.356;8.812;2023-01-23T14:00:42;3.70;99.90
33837;DHT22;20140;49.356;8.812;2023-01-23T14:03:28;3.70;99.90
33837;DHT22;20140;49.356;8.812;2023-01-23T14:06:14;3.60;99.90
33837;DHT22;20140;49.356;8.812;2023-01-23T14:08:51;3.70;99.90
33837;DHT22;20140;49.356;8.812;2023-01-23T14:11:19;3.80;99.90
33837;DHT22;20140;49.356;8.812;2023-01-23T14:13:50;3.70;99.90
33837;DHT22;20140;49.356;8.812;2023-01-23T14:16:17;3.70;99.90
33837;DHT22;20140;49.356;8.812;2023-01-23T14:18:55;3.80;99.90
33837;DHT22;20140;49.356;8.812;2023-01-23T14:21:26;3.40;99.90
33837;DHT22;20140;49.356;8.812;2023-01-23T14:23:57;3.60;99.90
33837;DHT22;20140;49.356;8.812;2023-01-23T14:26:26;3.60;99.90
33837;DHT22;20140;49.356;8.812;2023-01-23T14:29:02;3.60;99.90
33837;DHT22;20140;49.356;8.812;2023-01-23T14:31:33;4.20;99.90
33837;DHT22;20140;49.356;8.812;2023-01-23T14:34:04;5.00;99.90
33837;DHT22;20140;49.356;8.812;2023-01-23T14:36:32;4.70;99.90
33837;DHT22;20140;49.356;8.812;2023-01-23T14:39:00;5.50;99.90
33837;DHT22;20140;49.356;8.812;2023-01-23T14:41:30;5.80;99.90
33837;DHT22;20140;49.356;8.812;2023-01-23T14:43:57;5.10;99.90
33837;DHT22;20140;49.356;8.812;2023-01-23T14:46:38;4.60;99.90
33837;DHT22;20140;49.356;8.812;2023-01-23T14:49:08;4.40;99.90
33837;DHT22;20140;49.356;8.812;2023-01-23T14:51:35;4.60;99.90
33837;DHT22;20140;49.356;8.812;2023-01-23T14:54:05;4.60;99.90
33837;DHT22;20140;49.356;8.812;2023-01-23T14:56:40;4.80;99.90
33837;DHT22;20140;49.356;8.812;2023-01-23T14:59:07;4.90;99.90
33837;DHT22;20140;49.356;8.812;2023-01-23T15:01:40;4.90;99.90
33837;DHT22;20140;49.356;8.812;2023-01-23T15:04:19;5.60;99.90
33837;DHT22;20140;49.356;8.812;2023-01-23T15:06:56;6.20;99.90
33837;DHT22;20140;49.356;8.812;2023-01-23T15:09:34;6.00;99.90
33837;DHT22;20140;49.356;8.812;2023-01-23T15:12:12;5.80;99.90
33837;DHT22;20140;49.356;8.812;2023-01-23T15:14:39;6.30;99.90
33837;DHT22;20140;49.356;8.812;2023-01-23T15:17:11;5.90;99.90
33837;DHT22;20140;49.356;8.812;2023-01-23T15:19:39;5.60;99.90
33837;DHT22;20140;49.356;8.812;2023-01-23T15:22:14;5.50;99.90
33837;DHT22;20140;49.356;8.812;2023-01-23T15:24:40;5.80;99.90
33837;DHT22;20140;49.356;8.812;2023-01-23T15:27:29;5.70;99.90
33837;DHT22;20140;49.356;8.812;2023-01-23T15:32:58;5.20;99.90
33837;DHT22;20140;49.356;8.812;2023-01-23T15:35:30;5.10;99.90
33837;DHT22;20140;49.356;8.812;2023-01-23T15:37:56;5.30;99.90
33837;DHT22;20140;49.356;8.812;2023-01-23T15:40:26;5.20;99.90
33837;DHT22;20140;49.356;8.812;2023-01-23T15:45:30;4.90;99.90
33837;DHT22;20140;49.356;8.812;2023-01-23T15:47:55;4.80;99.90
33837;DHT22;20140;49.356;8.812;2023-01-23T15:50:21;4.60;99.90
33837;DHT22;20140;49.356;8.812;2023-01-23T15:52:49;4.20;99.90
33837;DHT22;20140;49.356;8.812;2023-01-23T15:55:15;4.10;99.90
33837;DHT22;20140;49.356;8.812;2023-01-23T15:57:41;4.00;99.90
33837;DHT22;20140;49.356;8.812;2023-01-23T16:00:27;4.00;99.90
33837;DHT22;20140;49.356;8.812;2023-01-23T16:02:55;3.90;99.90
33837;DHT22;20140;49.356;8.812;2023-01-23T16:05:23;3.90;99.90
33837;DHT22;20140;49.356;8.812;2023-01-23T16:07:49;3.80;99.90
33837;DHT22;20140;49.356;8.812;2023-01-23T16:12:44;3.50;99.90
33837;DHT22;20140;49.356;8.812;2023-01-23T16:15:24;3.40;99.90
33837;DHT22;20140;49.356;8.812;2023-01-23T16:17:50;3.30;99.90
33837;DHT22;20140;49.356;8.812;2023-01-23T16:20:21;3.30;99.90
33837;DHT22;20140;49.356;8.812;2023-01-23T16:22:50;3.20;99.90
33837;DHT22;20140;49.356;8.812;2023-01-23T16:25:34;3.20;99.90
33837;DHT22;20140;49.356;8.812;2023-01-23T16:28:00;3.20;99.90
33837;DHT22;20140;49.356;8.812;2023-01-23T16:30:27;3.10;99.90
33837;DHT22;20140;49.356;8.812;2023-01-23T16:32:53;2.90;99.90
33837;DHT22;20140;49.356;8.812;2023-01-23T16:35:20;3.00;99.90
33837;DHT22;20140;49.356;8.812;2023-01-23T16:37:48;3.00;99.90
33837;DHT22;20140;49.356;8.812;2023-01-23T16:40:24;3.00;99.90
33837;DHT22;20140;49.356;8.812;2023-01-23T16:42:51;3.00;99.90
33837;DHT22;20140;49.356;8.812;2023-01-23T16:45:24;2.90;99.90
33837;DHT22;20140;49.356;8.812;2023-01-23T16:47:51;2.90;99.90
33837;DHT22;20140;49.356;8.812;2023-01-23T16:53:14;2.50;99.90
33837;DHT22;20140;49.356;8.812;2023-01-23T16:55:43;2.20;99.90
33837;DHT22;20140;49.356;8.812;2023-01-23T16:58:15;2.20;99.90
33837;DHT22;20140;49.356;8.812;2023-01-23T17:00:43;2.30;99.90
33837;DHT22;20140;49.356;8.812;2023-01-23T17:03:09;2.20;99.90
33837;DHT22;20140;49.356;8.812;2023-01-23T17:05:35;2.30;99.90
33837;DHT22;20140;49.356;8.812;2023-01-23T17:08:22;2.30;99.90
33837;DHT22;20140;49.356;8.812;2023-01-23T17:10:56;2.30;99.90
33837;DHT22;20140;49.356;8.812;2023-01-23T17:13:23;2.40;99.90
33837;DHT22;20140;49.356;8.812;2023-01-23T17:15:51;2.10;99.90
33837;DHT22;20140;49.356;8.812;2023-01-23T17:18:24;2.00;99.90
33837;DHT22;20140;49.356;8.812;2023-01-23T17:20:51;2.00;99.90
33837;DHT22;20140;49.356;8.812;2023-01-23T17:23:20;2.00;99.90
33837;DHT22;20140;49.356;8.812;2023-01-23T17:25:46;1.70;99.90
33837;DHT22;20140;49.356;8.812;2023-01-23T17:28:15;1.60;99.90
33837;DHT22;20140;49.356;8.812;2023-01-23T17:30:42;1.60;99.90
33837;DHT22;20140;49.356;8.812;2023-01-23T17:33:19;1.50;99.90
33837;DHT22;20140;49.356;8.812;2023-01-23T17:35:45;1.40;99.90
33837;DHT22;20140;49.356;8.812;2023-01-23T17:38:19;1.40;99.90